Flight Track Log - Related Links

Times and Time Zones

All times are in EDT time to prevent confusion due to time zone crossing. See the JIA2373 flight status page for this flight to view local times or setup timezone preferences in your user account.

Time Position Orientation Groundspeed Altitude Reporting Facility
EDT Latitude Longitude Course Direction KTS MPH feet Rate Location/Type
Sat 06:33:11 PM 39.8964 -84.2442 180° South 162 186 1,600  Level Indianapolis Center
Sat 06:34:00 PM 39.8700 -84.2867 231° Southwest 185 213 3,300 2,143 Climbing Indianapolis Center
Sat 06:34:21 PM 39.8594 -84.3025 229° Southwest 205 236 4,100 2,341 Climbing Indianapolis Center
Sat 06:35:00 PM 39.6832 -84.5694 228° Southwest  Level FlightAware Approximate
Sat 06:35:22 PM 39.8217 -84.3692 234° Southwest 217 250 6,500  Level Indianapolis Center
Sat 06:36:00 PM 39.6183 -84.6958 243° Southwest  Level FlightAware Approximate
Sat 06:36:23 PM 39.7750 -84.4467 232° Southwest 258 297 9,500  Level Indianapolis Center
Sat 06:37:00 PM 39.5023 -84.7000 180° South  Level FlightAware Approximate
Sat 06:37:24 PM 39.7283 -84.5233 232° Southwest 267 307 12,000  Level Indianapolis Center
Sat 06:38:00 PM 39.3844 -84.7000 180° South  Level FlightAware Approximate
Sat 06:38:26 PM 39.6800 -84.6044 232° Southwest 279 321 14,300  Level Indianapolis Center
Sat 06:39:27 PM 39.6281 -84.6864 231° Southwest 290 334 16,400 1,672 Climbing Indianapolis Center
Sat 06:40:28 PM 39.5375 -84.7025 188° South 335 386 17,700 976 Climbing Indianapolis Center
Sat 06:41:30 PM 39.4356 -84.7036 180° South 360 414 18,400 732 Climbing Indianapolis Center
Sat 06:42:31 PM 39.3256 -84.7042 180° South 385 443 19,200 836 Climbing Indianapolis Center
Sat 06:43:32 PM 39.2122 -84.7033 180° South 402 463 20,100 976 Climbing Indianapolis Center
Sat 06:44:34 PM 39.0772 -84.7025 180° South 409 471 21,200 976 Climbing Indianapolis Center
Sat 06:45:35 PM 38.9686 -84.6503 160° South 436 502 22,100 934 Climbing Indianapolis Center
Sat 06:46:36 PM 38.8792 -84.5547 140° Southeast 435 501 23,100 878 Climbing Indianapolis Center
Sat 06:47:38 PM 38.7786 -84.4497 141° Southeast 445 512 23,900 634 Climbing Indianapolis Center
Sat 06:48:39 PM 38.6819 -84.3469 140° Southeast 448 516 24,400 541 Climbing Indianapolis Center
Sat 06:49:40 PM 38.5856 -84.2453 140° Southeast 449 517 25,000 295 Climbing Indianapolis Center
Sat 06:50:41 PM 38.4850 -84.1425 141° Southeast 459 528 25,000  Level Indianapolis Center
Sat 06:51:42 PM 38.3811 -84.0375 142° Southeast 471 542 25,000  Level Indianapolis Center
Sat 06:52:44 PM 38.2756 -83.9322 142° Southeast 479 551 25,000  Level Indianapolis Center
Sat 06:53:45 PM 38.1708 -83.8261 141° Southeast 479 551 25,000  Level Indianapolis Center
Sat 06:54:46 PM 38.0483 -83.7006 141° Southeast 481 554 25,000  Level Indianapolis Center
Sat 06:55:47 PM 37.9428 -83.5958 142° Southeast 480 552 25,000  Level Indianapolis Center
Sat 06:56:48 PM 37.8367 -83.4911 142° Southeast 481 554 25,000  Level Indianapolis Center
Sat 06:57:50 PM 37.7322 -83.3861 141° Southeast 479 551 25,000  Level Indianapolis Center
Sat 06:58:51 PM 37.6272 -83.2814 142° Southeast 480 552 25,000  Level Indianapolis Center
Sat 06:59:52 PM 37.5214 -83.1778 142° Southeast 480 552 25,000  Level Indianapolis Center
Sat 07:00:53 PM 37.4161 -83.0761 143° Southeast 477 549 25,000  Level Indianapolis Center
Sat 07:01:54 PM 37.3089 -82.9703 142° Southeast 483 556 25,000  Level Indianapolis Center
Sat 07:02:55 PM 37.2022 -82.8661 142° Southeast 483 556 25,000  Level Indianapolis Center
Sat 07:03:57 PM 37.0947 -82.7603 142° Southeast 484 557 25,000  Level Indianapolis Center
Sat 07:04:58 PM 36.9828 -82.6608 145° Southeast 484 557 25,000  Level Indianapolis Center
Sat 07:05:59 PM 36.8678 -82.5706 148° Southeast 480 552 25,000 -246 Level Indianapolis Center
Sat 07:07:00 PM 36.7542 -82.4806 148° Southeast 480 552 24,500 -492 Descending Indianapolis Center
Sat 07:08:01 PM 36.6419 -82.3919 148° Southeast 476 548 24,000 -375 Descending Indianapolis Center
Sat 07:08:20 PM 36.6017 -82.3606 148° Southeast 479 551 24,000  Level Atlanta Center
Sat 07:09:20 PM 36.4897 -82.2750 148° Southeast 479 551 24,000  Level Atlanta Center
Sat 07:10:20 PM 36.3822 -82.1897 147° Southeast 474 545 24,000  Level Atlanta Center
Sat 07:11:20 PM 36.2744 -82.1047 148° Southeast 474 545 24,000 -950 Level Atlanta Center
Sat 07:12:20 PM 36.1669 -82.0222 148° Southeast 463 533 22,100 -2,150 Descending Atlanta Center
Sat 07:13:20 PM 36.0483 -81.9278 147° Southeast 463 533 19,700 -2,300 Descending Atlanta Center
Sat 07:14:20 PM 35.9447 -81.8483 148° Southeast 456 525 17,500 -2,300 Descending Atlanta Center
Sat 07:15:20 PM 35.8433 -81.7717 148° Southeast 446 513 15,100 -2,494 Descending Atlanta Center
Sat 07:15:37 PM 35.8136 -81.7494 149° Southeast 426 490 14,300 -2,300 Descending Atlanta Center
Sat 07:16:20 PM 35.7458 -81.6950 147° Southeast 429 494 12,800 -2,127 Descending Atlanta Center
Sat 07:16:56 PM 35.6889 -81.6533 149° Southeast 409 471 11,500 -1,800 Descending Atlanta Center
Sat 07:17:20 PM 35.6486 -81.6236 149° Southeast 422 486 11,000 -655 Descending Atlanta Center
Sat 07:17:51 PM 35.6103 -81.5864 142° Southeast 354 407 10,900  Descending Atlanta Center
Sat 07:18:20 PM 35.5803 -81.5492 135° Southeast 374 430 11,000 -90 Climbing Atlanta Center
Sat 07:18:58 PM 35.5500 -81.4914 123° Southeast 296 341 10,800 -600 Descending Atlanta Center
Sat 07:19:20 PM 35.5408 -81.4583 109° East 316 364 10,400 -1,377 Descending Atlanta Center
Sat 07:19:59 PM 35.5269 -81.3900 104° East 301 346 9,400 -1,400 Descending Atlanta Center
Sat 07:20:20 PM 35.5200 -81.3569 104° East 303 349 9,000 -1,180 Descending Atlanta Center
Sat 07:21:00 PM 35.5081 -81.2911 103° East 306 352 8,200 -1,200 Descending Atlanta Center
Sat 07:21:20 PM 35.5011 -81.2556 103° East 303 349 7,800 -1,300 Descending Atlanta Center
Sat 07:22:00 PM 35.4869 -81.1922 105° East 302 348 6,900 -1,300 Descending Atlanta Center
Sat 07:22:20 PM 35.4800 -81.1569 104° East 298 343 6,500 -1,475 Descending Atlanta Center
Sat 07:23:01 PM 35.4703 -81.0961 101° East 282 325 5,400 -1,600 Descending Atlanta Center
Sat 07:23:20 PM 35.4611 -81.0633 109° East 288 331 4,900 -1,475 Descending Atlanta Center
Sat 07:24:02 PM 35.4328 -81.0208 129° Southeast 263 303 3,900 -1,200 Descending Atlanta Center
Sat 07:24:20 PM 35.4156 -80.9986 134° Southeast 261 300 3,700 -667 Descending Atlanta Center

Login

Don't have an account? Register now (free) for customized features, flight alerts, and more!